Time;durP1;ratioP1;P1;durP2;ratioP2;P2;SDS_P1;SDS_P2;PMS_P1;PMS_P2;Temp;Humidity;BMP_temperature;BMP_pressure;BME280_temperature;BME280_humidity;BME280_pressure;Samples;Min_cycle;Max_cycle;Signal;HPM_P1;HPM_P2
2022/12/21 00:02:39;;;;;;;20.48;11.78;;;;;;;2.52;71.29;101465.32;1713943;82;21232;-57
2022/12/21 00:05:45;;;;;;;21.05;11.08;;;;;;;2.52;71.27;101470.73;1713844;82;21199;-58
2022/12/21 00:08:52;;;;;;;18.15;10.82;;;;;;;2.54;71.29;101471.98;1713842;82;21232;-58
2022/12/21 00:11:59;;;;;;;19.10;10.80;;;;;;;2.54;71.26;101458.46;1713972;82;21211;-58
2022/12/21 00:15:05;;;;;;;17.52;10.93;;;;;;;2.56;71.27;101466.88;1713961;84;21180;-58
2022/12/21 00:18:11;;;;;;;16.30;10.70;;;;;;;2.56;71.22;101461.95;1714025;82;21223;-58
2022/12/21 00:21:20;;;;;;;20.57;11.05;;;;;;;2.57;71.25;101454.24;1713989;84;21283;-58
2022/12/21 00:24:18;;;;;;;;;;;;;;;2.57;71.24;101451.54;1713607;83;21365;-57
2022/12/21 00:27:24;;;;;;;18.12;10.63;;;;;;;2.61;71.23;101452.59;1700307;83;20197;-57
2022/12/21 00:30:30;;;;;;;21.50;12.13;;;;;;;2.62;71.21;101442.63;1700302;83;21272;-57
2022/12/21 00:33:36;;;;;;;21.73;11.57;;;;;;;2.63;71.21;101441.67;1700309;83;21227;-57
2022/12/21 00:36:41;;;;;;;16.67;10.38;;;;;;;2.64;71.25;101440.22;1700379;83;21204;-56
2022/12/21 00:39:46;;;;;;;17.35;10.35;;;;;;;2.67;71.19;101441.37;1700338;84;21252;-58
2022/12/21 00:42:52;;;;;;;18.48;10.93;;;;;;;2.68;71.16;101435.49;1700247;83;21271;-56
2022/12/21 00:45:58;;;;;;;18.10;9.83;;;;;;;2.70;71.20;101430.36;1700369;84;21311;-57
2022/12/21 00:49:12;;;;;;;18.75;11.30;;;;;;;2.73;71.17;101429.27;1700348;84;21193;-57
2022/12/21 00:52:19;;;;;;;15.80;10.72;;;;;;;2.75;71.17;101428.70;1700369;83;21189;-58
2022/12/21 00:55:28;;;;;;;19.32;11.15;;;;;;;2.78;71.13;101421.26;1700245;84;21220;-57
2022/12/21 00:58:34;;;;;;;19.90;10.58;;;;;;;2.78;71.07;101416.32;1700355;83;21231;-57
2022/12/21 01:01:43;;;;;;;18.57;11.10;;;;;;;2.78;71.03;101408.22;1700210;83;21224;-57
2022/12/21 01:04:51;;;;;;;18.95;10.48;;;;;;;2.77;71.04;101410.55;1700358;84;21251;-57
2022/12/21 01:07:57;;;;;;;18.75;11.12;;;;;;;2.78;71.01;101406.86;1700403;83;21332;-56
2022/12/21 01:11:09;;;;;;;20.15;11.28;;;;;;;2.76;71.04;101408.31;1700351;83;21177;-57
2022/12/21 01:14:16;;;;;;;17.32;10.25;;;;;;;2.77;71.02;101409.20;1700279;84;21181;-58
2022/12/21 01:17:22;;;;;;;19.48;11.63;;;;;;;2.76;71.00;101405.61;1700381;83;21236;-58
2022/12/21 01:20:28;;;;;;;18.52;10.95;;;;;;;2.77;70.98;101400.61;1700330;83;21264;-57
2022/12/21 01:23:35;;;;;;;19.80;10.90;;;;;;;2.76;70.92;101394.80;1700423;83;21332;-57
2022/12/21 01:26:42;;;;;;;15.72;10.53;;;;;;;2.74;70.92;101389.13;1699659;83;21252;-57
2022/12/21 01:29:48;;;;;;;19.35;11.38;;;;;;;2.74;70.95;101390.48;1700418;84;21247;-57
2022/12/21 01:32:55;;;;;;;16.65;10.23;;;;;;;2.74;70.97;101385.07;1700238;83;21207;-57
2022/12/21 01:36:00;;;;;;;21.10;11.38;;;;;;;2.72;70.92;101384.30;1700394;84;21204;-58
2022/12/21 01:39:07;;;;;;;16.93;10.35;;;;;;;2.71;70.93;101378.52;1700417;83;21334;-57
2022/12/21 01:42:16;;;;;;;19.62;10.75;;;;;;;2.67;70.94;101379.20;1700273;83;21737;-56
2022/12/21 01:45:37;;;;;;;16.62;9.95;;;;;;;2.64;70.92;101371.77;1703204;84;21216;-57
2022/12/21 01:48:46;;;;;;;17.67;10.82;;;;;;;2.61;70.92;101377.38;1700280;83;21236;-56
2022/12/21 01:51:58;;;;;;;14.63;9.73;;;;;;;2.58;70.90;101370.83;1700263;83;21204;-57
2022/12/21 01:55:08;;;;;;;16.30;10.50;;;;;;;2.59;70.94;101367.15;1672910;84;21204;-57
2022/12/21 01:58:15;;;;;;;13.95;9.15;;;;;;;2.61;70.90;101355.76;1700272;83;21251;-57
2022/12/21 02:01:21;;;;;;;15.15;9.28;;;;;;;2.59;70.90;101343.70;1700191;84;21721;-58
2022/12/21 02:04:27;;;;;;;16.77;9.45;;;;;;;2.59;70.93;101347.75;1700390;84;21232;-58
2022/12/21 02:07:33;;;;;;;17.50;8.75;;;;;;;2.64;70.98;101344.74;1700318;83;21271;-57
2022/12/21 02:10:39;;;;;;;15.98;9.48;;;;;;;2.65;70.98;101347.34;1700334;83;21181;-57
2022/12/21 02:13:46;;;;;;;15.15;9.75;;;;;;;2.68;71.00;101333.62;1700347;83;21297;-57
2022/12/21 02:17:33;;;;;;;17.37;10.05;;;;;;;2.71;71.01;101343.38;1700262;83;21228;-58
2022/12/21 02:20:55;;;;;;;16.57;9.88;;;;;;;2.75;71.04;101337.66;1700231;84;21196;-56
2022/12/21 02:24:24;;;;;;;16.17;8.98;;;;;;;2.78;70.99;101337.45;1700220;84;21188;-57
2022/12/21 02:27:51;;;;;;;14.28;9.00;;;;;;;2.82;71.07;101332.70;1707144;81;21208;-58
2022/12/21 02:31:34;;;;;;;14.10;9.15;;;;;;;2.82;70.95;101321.89;1713930;84;21224;-58
2022/12/21 02:35:07;;;;;;;15.32;8.35;;;;;;;2.79;70.87;101327.52;1714095;84;21211;-57
2022/12/21 02:38:38;;;;;;;16.17;9.68;;;;;;;2.79;70.92;101319.40;1713925;82;21302;-58
2022/12/21 02:41:57;;;;;;;15.55;9.98;;;;;;;2.78;70.88;101329.34;1713979;82;21216;-57
2022/12/21 02:45:04;;;;;;;17.45;10.03;;;;;;;2.78;70.91;101327.98;1713960;83;21251;-57
2022/12/21 02:48:16;;;;;;;15.53;8.95;;;;;;;2.78;70.88;101329.81;1713863;82;21287;-57
2022/12/21 02:51:32;;;;;;;16.02;8.93;;;;;;;2.77;70.83;101335.73;1713941;84;21211;-58
2022/12/21 02:54:31;;;;;;;18.40;9.98;;;;;;;2.75;70.85;101335.43;1713895;84;21184;-58
2022/12/21 02:57:30;;;;;;;15.48;9.18;;;;;;;2.74;70.88;101337.25;1713964;82;21227;-57
2022/12/21 03:00:19;;;;;;;17.98;10.05;;;;;;;2.75;70.88;101340.83;1713884;84;21223;-56
2022/12/21 03:07:23;;;;;;;14.83;8.80;;;;;;;2.79;70.88;101330.22;1713913;82;21732;-57
2022/12/21 03:11:00;;;;;;;14.63;9.13;;;;;;;2.79;70.86;101327.52;1713885;84;21199;-57
2022/12/21 03:14:38;;;;;;;15.53;9.18;;;;;;;2.81;70.86;101322.84;1713891;83;21242;-58
2022/12/21 03:17:56;;;;;;;15.25;8.98;;;;;;;2.82;70.90;101314.63;1713896;82;21783;-57
2022/12/21 03:21:14;;;;;;;17.95;9.10;;;;;;;2.84;70.87;101301.00;1699019;83;21179;-57
2022/12/21 03:24:27;;;;;;;13.30;8.68;;;;;;;2.84;70.85;101299.65;1713052;83;21212;-57
2022/12/21 03:27:43;;;;;;;17.30;9.38;;;;;;;2.80;70.79;101300.84;1713314;82;21243;-57
2022/12/21 03:30:52;;;;;;;15.28;9.50;;;;;;;2.80;70.79;101297.66;1686775;84;21211;-57
2022/12/21 03:58:12;;;;;;;14.98;8.83;;;;;;;3.25;70.34;101300.36;1850957;77;28126;-57
2022/12/21 04:01:38;;;;;;;35.68;17.75;;;;;;;3.19;70.21;101294.03;1842776;77;21184;-54
2022/12/21 04:05:12;;;;;;;14.20;8.75;;;;;;;3.15;70.21;101296.59;1812635;79;21177;-54
2022/12/21 04:08:19;;;;;;;14.38;8.65;;;;;;;3.12;70.27;101294.09;1811724;79;21180;-54
2022/12/21 04:14:48;;;;;;;22.77;11.65;;;;;;;3.08;70.31;101297.97;1804289;79;21327;-54
2022/12/21 04:17:58;;;;;;;40.92;22.07;;;;;;;3.07;70.38;101300.30;1804444;79;21197;-56
2022/12/21 04:21:04;;;;;;;18.73;10.23;;;;;;;3.08;70.46;101300.67;1804647;79;21208;-54
2022/12/21 04:31:00;;;;;;;14.65;9.05;;;;;;;3.04;70.54;101298.66;1802509;79;21216;-56
2022/12/21 04:34:07;;;;;;;20.12;10.08;;;;;;;3.03;70.63;101302.35;1803586;79;21209;-54
2022/12/21 04:37:31;;;;;;;16.30;9.05;;;;;;;3.06;70.65;101299.91;1803733;79;21276;-55
2022/12/21 04:40:37;;;;;;;20.85;11.75;;;;;;;3.08;70.67;101292.09;1803753;79;21231;-55
2022/12/21 04:43:46;;;;;;;19.35;11.28;;;;;;;3.08;70.67;101293.91;1801488;79;21185;-55
2022/12/21 04:46:51;;;;;;;17.52;10.35;;;;;;;3.10;70.65;101296.03;1790880;80;21193;-56
2022/12/21 04:49:58;;;;;;;18.10;9.98;;;;;;;3.11;70.64;101296.91;1792955;80;21637;-55
2022/12/21 04:53:04;;;;;;;20.20;10.75;;;;;;;3.12;70.68;101292.75;1785128;79;21181;-56
2022/12/21 04:56:09;;;;;;;21.07;10.70;;;;;;;3.13;70.67;101299.88;1785133;79;21218;-55
2022/12/21 04:59:15;;;;;;;18.55;10.38;;;;;;;3.14;70.63;101309.71;1781305;80;21304;-56
2022/12/21 05:02:23;;;;;;;20.90;10.38;;;;;;;3.16;70.66;101313.66;1783766;80;21434;-55
2022/12/21 05:05:29;;;;;;;29.32;21.17;;;;;;;3.15;70.67;101313.30;1783761;80;21189;-55
2022/12/21 05:08:38;;;;;;;20.65;12.58;;;;;;;3.16;70.61;101311.83;1784010;80;21281;-56
2022/12/21 05:11:45;;;;;;;49.15;30.10;;;;;;;3.16;70.60;101311.83;1784842;80;21366;-55
2022/12/21 05:14:52;;;;;;;49.08;30.62;;;;;;;3.17;70.57;101312.23;1786845;79;21225;-56
2022/12/21 05:17:58;;;;;;;27.40;17.02;;;;;;;3.14;70.56;101308.87;1802110;79;21188;-55
2022/12/21 05:21:04;;;;;;;25.68;14.35;;;;;;;3.13;70.54;101303.94;1802630;79;21772;-55
2022/12/21 05:24:10;;;;;;;22.67;13.72;;;;;;;3.13;70.49;101312.05;1803333;79;21263;-54
2022/12/21 05:27:16;;;;;;;40.38;24.23;;;;;;;3.13;70.45;101306.64;1803011;79;21201;-53
2022/12/21 05:30:21;;;;;;;49.77;23.87;;;;;;;3.12;70.44;101308.98;1776944;79;21186;-54
2022/12/21 05:33:29;;;;;;;43.75;23.00;;;;;;;3.12;70.45;101310.33;1771163;79;21206;-55
2022/12/21 05:36:29;;;;;;;19.02;11.03;;;;;;;3.13;70.47;101303.94;1770403;80;21222;-55
2022/12/21 05:39:27;;;;;;;15.75;9.65;;;;;;;3.16;70.46;101310.48;1771049;81;21241;-54
2022/12/21 05:42:34;;;;;;;15.15;10.10;;;;;;;3.18;70.44;101309.90;1753776;79;21285;-58
2022/12/21 05:45:42;;;;;;;13.78;9.28;;;;;;;3.20;70.44;101318.78;1771456;80;21186;-58
2022/12/21 05:48:50;;;;;;;13.72;9.60;;;;;;;3.21;70.34;101312.39;1796889;79;21200;-58
2022/12/21 05:51:56;;;;;;;15.83;9.95;;;;;;;3.22;70.27;101315.46;1803629;79;21228;-58
2022/12/21 05:55:01;;;;;;;23.80;13.83;;;;;;;3.23;70.27;101309.58;1806670;79;21189;-57
2022/12/21 05:58:08;;;;;;;23.47;15.58;;;;;;;3.24;70.22;101319.41;1801253;78;21150;-59
2022/12/21 06:01:16;;;;;;;23.77;15.50;;;;;;;3.24;70.26;101313.52;1755067;80;21331;-58
2022/12/21 06:04:23;;;;;;;20.17;13.43;;;;;;;3.26;70.30;101299.89;1769886;80;21179;-57
2022/12/21 06:07:29;;;;;;;16.85;11.30;;;;;;;3.29;70.31;101295.13;1770149;80;21237;-60
2022/12/21 06:10:34;;;;;;;16.40;10.88;;;;;;;3.31;70.34;101295.02;1777454;79;21221;-58
2022/12/21 06:13:40;;;;;;;21.60;12.53;;;;;;;3.32;70.31;101298.98;1769554;81;21218;-58
2022/12/21 06:16:48;;;;;;;18.45;12.03;;;;;;;3.32;70.33;101307.09;1774503;79;21782;-59
2022/12/21 06:19:54;;;;;;;18.00;11.68;;;;;;;3.35;70.34;101301.47;1767359;81;21197;-59
2022/12/21 06:22:59;;;;;;;22.02;12.15;;;;;;;3.37;70.26;101310.83;1771954;80;21737;-58
2022/12/21 06:26:10;;;;;;;18.92;11.88;;;;;;;3.39;70.22;101312.95;1771501;80;21279;-57
2022/12/21 06:29:16;;;;;;;21.42;12.53;;;;;;;3.40;70.19;101310.12;1771165;80;21212;-57
2022/12/21 06:32:21;;;;;;;19.73;12.45;;;;;;;3.40;70.22;101304.72;1771309;80;21270;-57
2022/12/21 06:35:27;;;;;;;20.00;12.15;;;;;;;3.44;70.25;101310.28;1770669;80;21763;-56
2022/12/21 06:38:32;;;;;;;21.12;14.05;;;;;;;3.48;70.29;101302.81;1770487;81;21184;-57
2022/12/21 06:41:40;;;;;;;23.22;16.73;;;;;;;3.50;70.32;101308.99;1771477;80;21542;-57
2022/12/21 06:44:46;;;;;;;25.80;16.10;;;;;;;3.50;70.28;101312.58;1746529;81;21772;-57
2022/12/21 06:47:51;;;;;;;24.87;16.32;;;;;;;3.52;70.28;101314.66;1746653;80;21212;-58
2022/12/21 06:51:06;;;;;;;27.73;18.62;;;;;;;3.54;70.24;101313.20;1772201;81;21220;-57
2022/12/21 06:54:11;;;;;;;26.73;18.30;;;;;;;3.53;70.17;101316.41;1768687;79;21545;-57
2022/12/21 06:57:17;;;;;;;23.55;16.80;;;;;;;3.54;70.21;101305.08;1772438;80;21780;-57
2022/12/21 07:00:24;;;;;;;20.48;13.50;;;;;;;3.57;70.22;101302.19;1779592;79;21586;-58
2022/12/21 07:03:30;;;;;;;19.02;12.25;;;;;;;3.57;70.19;101313.86;1749681;79;21279;-59
2022/12/21 07:06:41;;;;;;;20.95;12.07;;;;;;;3.59;70.17;101318.68;1802380;79;21200;-56
2022/12/21 07:09:47;;;;;;;15.83;11.30;;;;;;;3.62;70.23;101314.87;1798943;79;21217;-57
2022/12/21 07:12:54;;;;;;;19.55;11.75;;;;;;;3.68;70.21;101313.11;1803707;79;21197;-59
2022/12/21 07:16:00;;;;;;;19.05;11.35;;;;;;;3.73;70.18;101309.56;1790061;79;21190;-57
2022/12/21 07:19:06;;;;;;;18.12;11.08;;;;;;;3.78;70.14;101305.56;1771371;81;21263;-57
2022/12/21 07:22:12;;;;;;;17.80;10.72;;;;;;;3.78;70.09;101310.98;1773595;79;21216;-54
2022/12/21 07:25:20;;;;;;;17.37;10.68;;;;;;;3.74;69.96;101312.67;1801947;79;21177;-53
2022/12/21 07:28:29;;;;;;;21.40;11.28;;;;;;;3.73;70.09;101306.85;1801850;79;21223;-55
2022/12/21 07:31:35;;;;;;;20.15;10.93;;;;;;;3.74;70.07;101306.74;1775442;79;21488;-54
2022/12/21 07:34:49;;;;;;;18.67;10.72;;;;;;;3.79;70.12;101307.28;1807455;78;21344;-55
2022/12/21 07:38:06;;;;;;;17.57;11.35;;;;;;;3.79;70.08;101320.82;1825367;78;21240;-55
2022/12/21 07:41:22;;;;;;;17.23;11.03;;;;;;;3.80;70.08;101319.87;1830166;77;21222;-56
2022/12/21 07:44:31;;;;;;;16.02;10.28;;;;;;;3.78;70.12;101321.81;1831713;77;21193;-54
2022/12/21 07:47:41;;;;;;;19.27;11.57;;;;;;;3.80;70.18;101314.93;1805449;78;21185;-55
2022/12/21 07:50:52;;;;;;;20.80;11.97;;;;;;;3.81;70.17;101314.82;1804466;79;21285;-55
2022/12/21 07:54:08;;;;;;;19.92;12.73;;;;;;;3.82;70.19;101313.83;1788355;79;21589;-55
2022/12/21 07:57:24;;;;;;;22.73;12.90;;;;;;;3.86;70.18;101319.90;1788272;80;21221;-54
2022/12/21 08:00:30;;;;;;;20.25;11.78;;;;;;;3.89;70.19;101319.20;1762879;79;21523;-55
2022/12/21 08:03:36;;;;;;;20.17;12.93;;;;;;;3.91;70.11;101313.19;1793671;76;22123;-54
2022/12/21 08:06:45;;;;;;;19.42;11.90;;;;;;;3.95;70.09;101316.52;1868601;76;21381;-53
2022/12/21 08:10:09;;;;;;;19.35;12.40;;;;;;;3.98;70.09;101313.10;1795599;77;21210;-54
2022/12/21 08:13:52;;;;;;;22.80;12.13;;;;;;;4.05;70.11;101310.34;1800084;78;21286;-55
2022/12/21 08:16:49;;;;;;;18.37;11.90;;;;;;;4.09;70.01;101301.00;1799976;79;21192;-54
2022/12/21 08:19:56;;;;;;;19.07;11.45;;;;;;;4.14;69.98;101303.36;1786919;79;21648;-54
2022/12/21 08:23:08;;;;;;;20.57;12.80;;;;;;;4.17;69.94;101309.43;1781658;80;21630;-54
2022/12/21 08:26:17;;;;;;;19.30;13.00;;;;;;;4.22;70.06;101305.02;1781991;80;22046;-55
2022/12/21 08:29:22;;;;;;;29.55;19.57;;;;;;;4.28;70.06;101300.02;1782198;79;21206;-54
2022/12/21 08:32:29;;;;;;;32.00;16.40;;;;;;;4.31;70.09;101313.84;1781883;80;21776;-55
2022/12/21 08:35:44;;;;;;;25.85;13.65;;;;;;;4.44;70.10;101311.94;1852866;76;22274;-55
2022/12/21 08:38:53;;;;;;;23.50;13.93;;;;;;;4.44;70.08;101311.45;1785505;79;21170;-56
2022/12/21 08:42:01;;;;;;;25.25;13.85;;;;;;;4.45;69.98;101302.36;1769747;79;21244;-54
2022/12/21 08:45:14;;;;;;;23.87;12.73;;;;;;;4.50;70.02;101311.50;1770922;79;22147;-53
2022/12/21 08:48:27;;;;;;;34.20;15.20;;;;;;;4.56;70.02;101309.20;1771971;80;21196;-54
2022/12/21 08:51:40;;;;;;;27.58;14.35;;;;;;;4.57;69.99;101310.92;1772807;79;21259;-56
2022/12/21 08:54:58;;;;;;;29.63;17.52;;;;;;;4.63;69.97;101315.00;1768647;80;21338;-55
2022/12/21 08:58:06;;;;;;;43.33;23.70;;;;;;;4.67;69.91;101320.59;1758373;80;21197;-54
2022/12/21 09:01:12;;;;;;;36.60;19.77;;;;;;;4.72;69.93;101318.39;1740445;81;21224;-55
2022/12/21 09:04:20;;;;;;;34.80;18.67;;;;;;;4.77;69.88;101319.40;1765445;80;21874;-55
2022/12/21 09:07:59;;;;;;;24.05;12.93;;;;;;;4.78;69.88;101321.12;1746500;80;21268;-54
2022/12/21 09:11:10;;;;;;;27.25;15.05;;;;;;;4.84;69.85;101327.42;1770660;79;21283;-55
2022/12/21 09:14:19;;;;;;;34.38;18.15;;;;;;;4.86;69.81;101325.47;1768909;80;21253;-57
2022/12/21 09:17:25;;;;;;;49.27;21.25;;;;;;;4.91;69.80;101332.77;1739036;81;21275;-56
2022/12/21 09:20:38;;;;;;;25.57;13.38;;;;;;;4.90;69.67;101320.20;1756462;79;21193;-58
2022/12/21 09:23:57;;;;;;;25.72;12.55;;;;;;;4.89;69.63;101308.95;1768850;80;21229;-57
2022/12/21 09:27:24;;;;;;;23.07;12.47;;;;;;;4.87;69.60;101300.09;1742353;80;21303;-57
2022/12/21 09:30:30;;;;;;;19.32;11.53;;;;;;;4.92;69.62;101287.02;1769146;79;21161;-58
2022/12/21 09:33:36;;;;;;;47.03;29.10;;;;;;;4.95;69.57;101280.03;1768515;80;21765;-57
2022/12/21 09:36:50;;;;;;;28.83;13.93;;;;;;;4.98;69.49;101279.79;1734497;81;21417;-58
2022/12/21 09:40:01;;;;;;;31.40;14.95;;;;;;;4.98;69.49;101271.66;1734329;82;21590;-57
2022/12/21 09:43:21;;;;;;;27.73;14.18;;;;;;;4.97;69.46;101263.12;1713201;82;21848;-60
2022/12/21 09:46:27;;;;;;;46.98;21.33;;;;;;;4.98;69.42;101267.58;1713357;82;21548;-57
2022/12/21 09:49:41;;;;;;;32.03;15.88;;;;;;;4.94;69.35;101270.14;1733700;81;21180;-56
2022/12/21 09:52:54;;;;;;;36.00;15.95;;;;;;;4.90;69.37;101272.73;1732689;81;21212;-57
2022/12/21 09:56:01;;;;;;;36.95;20.60;;;;;;;4.88;69.44;101271.49;1728319;81;21228;-58
2022/12/21 09:59:13;;;;;;;34.10;17.70;;;;;;;4.92;69.50;101268.03;1718216;81;21200;-55
2022/12/21 10:02:38;;;;;;;29.77;15.63;;;;;;;4.99;69.53;101265.23;1733838;81;21267;-54
2022/12/21 10:06:15;;;;;;;43.13;20.15;;;;;;;5.04;69.47;101265.74;1730945;82;21260;-54
2022/12/21 10:09:58;;;;;;;33.60;16.25;;;;;;;5.06;69.42;101259.72;1729176;82;21488;-55
2022/12/21 10:13:40;;;;;;;22.80;12.73;;;;;;;5.07;69.44;101266.86;1705477;82;21284;-55
2022/12/21 10:17:23;;;;;;;19.62;11.43;;;;;;;5.10;69.43;101261.19;1734068;81;21239;-54
2022/12/21 10:21:00;;;;;;;19.90;11.75;;;;;;;5.10;69.38;101257.12;1732072;82;21569;-54
2022/12/21 10:24:06;;;;;;;23.07;14.50;;;;;;;5.14;69.38;101255.91;1712333;82;21491;-54
2022/12/21 10:27:20;;;;;;;26.95;15.93;;;;;;;5.13;69.32;101248.25;1729162;81;21220;-54
2022/12/21 10:30:26;;;;;;;24.92;14.00;;;;;;;5.10;69.30;101249.84;1729008;82;21181;-54
2022/12/21 10:33:32;;;;;;;23.95;13.43;;;;;;;5.07;69.25;101249.22;1719945;82;21792;-54
2022/12/21 10:36:43;;;;;;;22.27;13.13;;;;;;;5.09;69.26;101241.83;1749817;80;21233;-55
2022/12/21 10:39:48;;;;;;;23.35;13.55;;;;;;;5.14;69.29;101240.98;1766199;80;21198;-54
2022/12/21 10:42:57;;;;;;;19.27;11.65;;;;;;;5.17;69.20;101244.81;1767190;79;21177;-55
2022/12/21 10:46:02;;;;;;;18.62;11.05;;;;;;;5.21;69.17;101245.80;1767889;81;21214;-55
2022/12/21 10:49:27;;;;;;;17.57;11.30;;;;;;;5.26;69.15;101240.00;1768427;80;21806;-54
2022/12/21 10:52:48;;;;;;;17.42;11.25;;;;;;;5.32;69.08;101239.52;1768387;80;21244;-54
2022/12/21 10:55:53;;;;;;;18.02;9.90;;;;;;;5.36;68.99;101239.14;1769095;80;21276;-54
2022/12/21 10:58:58;;;;;;;19.07;10.00;;;;;;;5.39;68.83;101238.05;1739387;82;21193;-54
2022/12/21 11:02:05;;;;;;;16.20;10.35;;;;;;;5.44;68.71;101239.91;1718229;82;21209;-54
2022/12/21 11:05:11;;;;;;;16.48;10.05;;;;;;;5.53;68.77;101232.38;1703935;83;21357;-54
2022/12/21 11:08:29;;;;;;;17.80;11.22;;;;;;;5.60;68.65;101225.45;1699864;83;21209;-54
2022/12/21 11:11:43;;;;;;;19.32;11.03;;;;;;;5.61;68.42;101223.13;1709891;82;21194;-54
2022/12/21 11:14:48;;;;;;;19.35;10.13;;;;;;;5.67;68.50;101216.70;1701069;83;21182;-56
2022/12/21 11:17:54;;;;;;;16.50;10.78;;;;;;;5.79;68.55;101217.54;1757028;79;21182;-55
2022/12/21 11:21:03;;;;;;;15.98;9.93;;;;;;;5.95;68.60;101210.77;1751818;80;21713;-56
2022/12/21 11:24:13;;;;;;;16.65;10.55;;;;;;;6.05;68.48;101217.19;1765709;80;21625;-56
2022/12/21 11:27:27;;;;;;;15.05;10.15;;;;;;;6.14;68.43;101210.09;1768202;79;22115;-56
2022/12/21 11:30:39;;;;;;;15.50;9.65;;;;;;;6.24;68.41;101212.92;1768015;81;21506;-55
2022/12/21 11:33:45;;;;;;;16.77;9.83;;;;;;;6.29;68.27;101212.92;1755705;81;21594;-57
2022/12/21 11:37:05;;;;;;;16.60;10.85;;;;;;;6.31;68.28;101213.63;1758562;79;22521;-59
2022/12/21 11:40:32;;;;;;;20.52;10.30;;;;;;;6.29;68.26;101210.20;1738091;82;21236;-57
2022/12/21 11:43:38;;;;;;;17.90;10.10;;;;;;;6.26;68.31;101201.43;1731650;82;21240;-59
2022/12/21 11:46:56;;;;;;;16.67;10.28;;;;;;;6.22;68.26;101204.89;1767206;79;21343;-58
2022/12/21 11:50:25;;;;;;;17.15;10.48;;;;;;;6.17;68.14;101205.77;1729416;83;21596;-59
2022/12/21 11:54:13;;;;;;;17.82;11.30;;;;;;;6.07;67.94;101204.83;1715615;79;21565;-59
2022/12/21 11:57:37;;;;;;;18.52;10.88;;;;;;;5.98;67.94;101197.41;1769968;79;21213;-57
2022/12/21 12:00:50;;;;;;;16.57;10.53;;;;;;;5.83;67.94;101195.97;1775249;79;21240;-59
2022/12/21 12:04:20;;;;;;;19.48;10.98;;;;;;;5.72;67.96;101199.52;1769505;79;21307;-59
2022/12/21 12:07:39;;;;;;;20.12;11.22;;;;;;;5.61;68.05;101207.67;1770530;79;21174;-58
2022/12/21 12:11:13;;;;;;;20.45;12.00;;;;;;;5.53;68.18;101213.37;1770478;79;21205;-58
2022/12/21 12:14:33;;;;;;;21.40;12.95;;;;;;;5.45;68.21;101211.77;1770757;79;21209;-59
2022/12/21 12:17:54;;;;;;;18.20;11.43;;;;;;;5.41;68.29;101204.35;1771002;79;21236;-59
2022/12/21 12:21:39;;;;;;;19.62;11.48;;;;;;;5.37;68.28;101206.95;1754720;80;21279;-59
2022/12/21 12:25:02;;;;;;;18.60;10.78;;;;;;;5.32;68.23;101206.94;1772265;80;21252;-59
2022/12/21 12:28:46;;;;;;;19.67;11.70;;;;;;;5.28;68.28;101204.11;1771258;80;21193;-59
2022/12/21 12:32:03;;;;;;;18.33;11.07;;;;;;;5.24;68.36;101205.33;1770736;80;21744;-58
2022/12/21 12:35:31;;;;;;;17.25;11.68;;;;;;;5.21;68.46;101207.80;1758361;79;21986;-59
2022/12/21 12:39:10;;;;;;;24.05;13.32;;;;;;;5.18;68.55;101209.89;1768390;80;21170;-57
2022/12/21 12:42:22;;;;;;;20.37;12.40;;;;;;;5.14;68.57;101200.27;1764269;80;21213;-57
2022/12/21 12:46:10;;;;;;;23.60;12.63;;;;;;;5.07;68.53;101197.18;1757851;80;21206;-55
2022/12/21 12:49:36;;;;;;;23.30;13.60;;;;;;;5.00;68.52;101188.27;1749465;81;21205;-56
2022/12/21 12:53:14;;;;;;;19.10;12.25;;;;;;;4.93;68.56;101191.11;1747209;80;21209;-56
2022/12/21 12:56:54;;;;;;;24.17;13.57;;;;;;;4.90;68.56;101188.64;1736635;80;21224;-57
2022/12/21 13:00:09;;;;;;;23.12;14.10;;;;;;;4.83;68.56;101175.17;1762176;79;21240;-56
2022/12/21 13:03:53;;;;;;;24.05;14.10;;;;;;;4.77;68.52;101178.36;1770198;81;21736;-57
2022/12/21 13:07:09;;;;;;;21.00;12.60;;;;;;;4.74;68.57;101194.36;1760565;79;21208;-56
2022/12/21 13:10:31;;;;;;;30.05;15.43;;;;;;;4.68;68.52;101189.94;1769015;80;21240;-57
2022/12/21 13:13:43;;;;;;;45.75;27.77;;;;;;;4.63;68.55;101192.98;1738573;82;21753;-56
2022/12/21 13:16:58;;;;;;;56.50;35.10;;;;;;;4.58;68.62;101187.07;1738300;81;21211;-57
2022/12/21 13:20:04;;;;;;;55.83;32.83;;;;;;;4.55;68.65;101188.16;1739064;82;21757;-57
2022/12/21 13:23:37;;;;;;;45.63;29.80;;;;;;;4.52;68.64;101182.09;1733299;82;21233;-57
2022/12/21 13:26:55;;;;;;;37.33;23.45;;;;;;;4.49;68.67;101178.27;1760229;80;21984;-59
2022/12/21 13:30:25;;;;;;;32.58;20.85;;;;;;;4.44;68.58;101174.56;1748474;80;21205;-59
2022/12/21 13:33:38;;;;;;;30.32;19.02;;;;;;;4.39;68.58;101169.98;1764424;79;21233;-59
2022/12/21 13:36:44;;;;;;;29.55;18.12;;;;;;;4.32;68.51;101167.38;1743410;81;21222;-59
2022/12/21 13:40:25;;;;;;;31.33;18.90;;;;;;;4.29;68.57;101172.16;1730866;81;21736;-60
2022/12/21 13:43:40;;;;;;;28.12;17.55;;;;;;;4.25;68.52;101168.81;1726439;80;21440;-60
2022/12/21 13:46:57;;;;;;;23.85;15.78;;;;;;;4.20;68.46;101164.74;1766190;81;21264;-60
2022/12/21 13:50:49;;;;;;;27.98;17.85;;;;;;;4.16;68.42;101166.81;1710386;82;21220;-60
2022/12/21 13:54:31;;;;;;;42.08;23.47;;;;;;;4.12;68.45;101153.11;1729650;82;21228;-61
2022/12/21 13:57:48;;;;;;;55.55;24.80;;;;;;;4.05;68.41;101153.22;1667082;85;21238;-59
2022/12/21 14:01:18;;;;;;;55.52;27.22;;;;;;;3.94;68.35;101151.80;1697776;82;21204;-59
2022/12/21 14:04:49;;;;;;;43.13;22.02;;;;;;;3.86;68.36;101159.64;1737786;82;21240;-59
2022/12/21 14:08:04;;;;;;;33.45;18.37;;;;;;;3.81;68.36;101168.59;1742907;81;21499;-60
2022/12/21 14:11:48;;;;;;;24.25;14.60;;;;;;;3.78;68.47;101170.65;1758695;80;21209;-59
2022/12/21 14:15:32;;;;;;;24.65;13.80;;;;;;;3.81;68.62;101169.94;1759674;79;21759;-59
2022/12/21 14:18:41;;;;;;;23.98;14.58;;;;;;;3.81;68.61;101171.77;1764871;80;21550;-60
2022/12/21 14:21:51;;;;;;;20.90;13.08;;;;;;;3.82;68.61;101177.08;1756982;79;21821;-60
2022/12/21 14:24:56;;;;;;;21.77;12.78;;;;;;;3.87;68.69;101176.25;1760765;81;21786;-59
2022/12/21 14:28:36;;;;;;;28.17;13.53;;;;;;;3.92;68.82;101178.12;1751436;80;21860;-59
2022/12/21 14:31:46;;;;;;;25.50;14.20;;;;;;;3.99;68.97;101176.70;1738883;81;21729;-59
2022/12/21 14:35:05;;;;;;;24.10;14.53;;;;;;;4.07;69.03;101174.77;1758255;79;21605;-58
2022/12/21 14:38:31;;;;;;;24.37;13.83;;;;;;;4.12;69.03;101180.20;1767909;80;21836;-56
2022/12/21 14:41:44;;;;;;;23.00;13.70;;;;;;;4.17;69.06;101177.17;1743687;80;21686;-58
2022/12/21 14:45:20;;;;;;;22.62;12.75;;;;;;;4.21;69.08;101186.30;1728030;83;21201;-57
2022/12/21 14:48:35;;;;;;;23.32;14.40;;;;;;;4.25;69.07;101179.66;1729374;81;21714;-58
2022/12/21 14:51:45;;;;;;;28.92;14.55;;;;;;;4.27;69.03;101179.06;1707509;81;21592;-58
2022/12/21 14:55:07;;;;;;;27.73;15.30;;;;;;;4.27;68.98;101176.34;1710456;83;22008;-58
2022/12/21 14:58:29;;;;;;;27.15;16.55;;;;;;;4.26;68.88;101176.47;1693667;83;21292;-58
2022/12/21 15:01:52;;;;;;;24.55;15.23;;;;;;;4.25;68.88;101166.62;1714037;83;21281;-57
2022/12/21 15:05:06;;;;;;;23.25;13.40;;;;;;;4.23;68.78;101165.86;1711194;83;21232;-58
2022/12/21 15:08:15;;;;;;;22.52;13.53;;;;;;;4.20;68.69;101166.94;1739359;81;21178;-59
2022/12/21 15:11:26;;;;;;;23.45;13.68;;;;;;;4.19;68.70;101170.64;1759062;79;21208;-59
2022/12/21 15:14:57;;;;;;;28.15;15.60;;;;;;;4.18;68.75;101174.34;1764701;81;21185;-59
2022/12/21 15:18:30;;;;;;;26.25;14.80;;;;;;;4.19;68.82;101178.77;1766544;81;22006;-57
2022/12/21 15:21:45;;;;;;;23.00;14.47;;;;;;;4.19;68.75;101178.77;1766751;81;21268;-59
2022/12/21 15:25:00;;;;;;;25.88;15.43;;;;;;;4.19;68.72;101180.13;1768745;79;21565;-58
2022/12/21 15:28:13;;;;;;;25.97;15.08;;;;;;;4.17;68.68;101184.78;1768081;81;21774;-58
2022/12/21 15:31:39;;;;;;;22.80;15.08;;;;;;;4.16;68.68;101197.97;1760341;79;21193;-58
2022/12/21 15:34:48;;;;;;;27.52;17.23;;;;;;;4.16;68.71;101178.12;1756050;80;21201;-59